KFKL

Venango Regional Airport

Franklin, Pennsylvania, USA
METAR KFKL 181307Z AUTO 28007KT 5SM -SN BR OVC004 M01/M01 A2999 RMK AO2 CIG 003V008 P0000 FZRANO
Observed Flight Rules
Jan-18 @ 13:07 UTC (44 minutes ago) Instrument Flight Rules
Wind Visibility Clouds Conditions
280° at 7 knots 5 miles
  • Overcast at 400' AGL
  • Light Snow
  • Mist
Temperatures Readings Precipitation
Current -1°C / 30°F
Dewpoint -1°C / 30°F
Humidity 100%
Altimeter 29.99" Hg
Pressure 1015.62 hPa
Elevation 469
Current Rain 0.01
METAR KFKL 181307Z AUTO 28007KT 5SM -SN BR OVC004 M01/M01 A2999 RMK AO2 CIG 003V008 P0000 FZRANO
Observed Flight Rules
Jan-18 @ 13:07 UTC
(44 minutes ago)
LIFR
Wind Visibility
280° at 7 knots 5 miles
Clouds
  • Overcast at 400' AGL
Conditions
  • Light Snow
  • Mist
Temperature Dewpoint
-1°C / 30°F -1°C / 30°F
Humidity Altimeter Pressure
100% 29.99" Hg 1015.62 hPa
Current Rain
0.01